Time,TemperatureF,DewpointF,PressureIn,WindDirection,WindDirectionDegrees,WindSpeedMPH,WindSpeedGustMPH,Humidity,HourlyPrecipIn,Conditions,Clouds,dailyrainin,SoftwareType,DateUTC
2013-03-16 00:00:00,39.3,27.7,29.77,NW,315,3.0,8.0,63,0.00,,,-99.99,WeatherLink 5.7,2013-03-16 04:00:00,
2013-03-16 00:10:00,38.9,27.4,29.76,NW,315,3.0,7.0,63,0.00,,,-99.99,WeatherLink 5.7,2013-03-16 04:10:00,
2013-03-16 00:30:00,38.3,26.8,29.77,NW,315,4.0,7.0,63,0.00,,,-99.99,WeatherLink 5.7,2013-03-16 04:30:00,
2013-03-16 00:50:00,37.4,26.3,29.77,NW,315,2.0,6.0,64,0.00,,,-99.99,WeatherLink 5.7,2013-03-16 04:50:00,
2013-03-16 01:00:00,36.9,25.9,29.77,NW,315,2.0,5.0,64,0.00,,,-99.99,WeatherLink 5.7,2013-03-16 05:00:00,
2013-03-16 01:10:00,36.5,25.5,29.77,WNW,292,1.0,5.0,64,0.00,,,-99.99,WeatherLink 5.7,2013-03-16 05:10:00,
2013-03-16 01:20:00,36.1,25.1,29.77,WNW,292,1.0,4.0,64,0.00,,,-99.99,WeatherLink 5.7,2013-03-16 05:20:00,
2013-03-16 01:30:00,35.7,25.1,29.78,WNW,292,1.0,5.0,65,0.00,,,-99.99,WeatherLink 5.7,2013-03-16 05:30:00,
2013-03-16 01:50:00,35.4,24.8,29.77,NW,315,2.0,5.0,65,0.00,,,-99.99,WeatherLink 5.7,2013-03-16 05:50:00,
2013-03-16 02:10:00,34.8,24.2,29.77,NW,315,1.0,6.0,65,0.00,,,-99.99,WeatherLink 5.7,2013-03-16 06:10:00,
2013-03-16 02:30:00,34.7,23.8,29.79,WNW,292,2.0,5.0,64,0.00,,,-99.99,WeatherLink 5.7,2013-03-16 06:30:00,
2013-03-16 02:50:00,33.9,23.4,29.79,WNW,292,1.0,3.0,65,0.00,,,-99.99,WeatherLink 5.7,2013-03-16 06:50:00,
2013-03-16 03:10:00,32.4,22.7,29.79,NW,315,0.0,1.0,67,0.00,,,-99.99,WeatherLink 5.7,2013-03-16 07:10:00,
2013-03-16 03:20:00,32.1,22.4,29.80,NW,315,0.0,1.0,67,0.00,,,-99.99,WeatherLink 5.7,2013-03-16 07:20:00,
2013-03-16 03:40:00,31.6,22.6,29.80,North,-999,0.0,1.0,69,0.00,,,-99.99,WeatherLink 5.7,2013-03-16 07:40:00,
2013-03-16 03:50:00,31.3,22.0,29.79,NW,315,0.0,2.0,68,0.00,,,-99.99,WeatherLink 5.7,2013-03-16 07:50:00,
2013-03-16 04:10:00,31.0,21.3,29.80,NW,315,0.0,2.0,67,0.00,,,-99.99,WeatherLink 5.7,2013-03-16 08:10:00,
2013-03-16 04:30:00,31.4,20.2,29.79,NNW,337,2.0,5.0,63,0.00,,,-99.99,WeatherLink 5.7,2013-03-16 08:30:00,
2013-03-16 04:50:00,32.0,20.1,29.80,WNW,292,1.0,4.0,61,0.00,,,-99.99,WeatherLink 5.7,2013-03-16 08:50:00,
2013-03-16 05:10:00,31.2,20.1,29.80,North,-999,0.0,0.0,63,0.00,,,-99.99,WeatherLink 5.7,2013-03-16 09:10:00,
2013-03-16 05:30:00,30.7,19.6,29.81,NW,315,1.0,3.0,63,0.00,,,-99.99,WeatherLink 5.7,2013-03-16 09:30:00,
2013-03-16 05:40:00,30.8,20.0,29.80,NW,315,0.0,2.0,64,0.00,,,-99.99,WeatherLink 5.7,2013-03-16 09:40:00,
2013-03-16 05:50:00,30.5,20.1,29.81,NW,315,0.0,2.0,65,0.00,,,-99.99,WeatherLink 5.7,2013-03-16 09:50:00,
2013-03-16 06:10:00,30.1,20.5,29.82,WNW,292,0.0,1.0,67,0.00,,,-99.99,WeatherLink 5.7,2013-03-16 10:10:00,
2013-03-16 06:30:00,30.0,19.3,29.82,WNW,292,0.0,2.0,64,0.00,,,-99.99,WeatherLink 5.7,2013-03-16 10:30:00,
2013-03-16 06:40:00,30.2,19.8,29.82,North,-999,0.0,0.0,65,0.00,,,-99.99,WeatherLink 5.7,2013-03-16 10:40:00,
2013-03-16 06:50:00,29.9,19.9,29.81,WNW,292,0.0,1.0,66,0.00,,,-99.99,WeatherLink 5.7,2013-03-16 10:50:00,
2013-03-16 07:10:00,29.7,19.4,29.82,WNW,292,0.0,1.0,65,0.00,,,-99.99,WeatherLink 5.7,2013-03-16 11:10:00,
2013-03-16 07:30:00,29.8,19.5,29.83,North,-999,0.0,0.0,65,0.00,,,-99.99,WeatherLink 5.7,2013-03-16 11:30:00,
2013-03-16 07:50:00,30.0,21.1,29.84,North,-999,0.0,0.0,69,0.00,,,-99.99,WeatherLink 5.7,2013-03-16 11:50:00,
2013-03-16 08:10:00,30.2,21.6,29.85,North,-999,0.0,0.0,70,0.00,,,-99.99,WeatherLink 5.7,2013-03-16 12:10:00,
2013-03-16 08:30:00,31.2,21.5,29.84,North,-999,0.0,0.0,67,0.00,,,-99.99,WeatherLink 5.7,2013-03-16 12:30:00,
2013-03-16 08:40:00,31.7,20.9,29.84,WNW,292,0.0,1.0,64,0.00,,,-99.99,WeatherLink 5.7,2013-03-16 12:40:00,
2013-03-16 08:50:00,32.1,20.9,29.84,WNW,292,0.0,1.0,63,0.00,,,-99.99,WeatherLink 5.7,2013-03-16 12:50:00,
2013-03-16 09:00:00,32.5,20.9,29.83,WNW,292,0.0,2.0,62,0.00,,,-99.99,WeatherLink 5.7,2013-03-16 13:00:00,
2013-03-16 09:20:00,32.7,19.9,29.83,WNW,292,0.0,2.0,59,0.00,,,-99.99,WeatherLink 5.7,2013-03-16 13:20:00,
2013-03-16 09:30:00,32.7,19.9,29.84,NNE,22,0.0,3.0,59,0.00,,,-99.99,WeatherLink 5.7,2013-03-16 13:30:00,
2013-03-16 09:40:00,32.8,19.6,29.83,North,0,0.0,3.0,58,0.00,,,-99.99,WeatherLink 5.7,2013-03-16 13:40:00,
2013-03-16 10:00:00,33.4,19.4,29.83,NW,315,1.0,4.0,56,0.00,,,-99.99,WeatherLink 5.7,2013-03-16 14:00:00,
2013-03-16 10:20:00,34.2,19.7,29.82,NW,315,1.0,4.0,55,0.00,,,-99.99,WeatherLink 5.7,2013-03-16 14:20:00,
2013-03-16 10:40:00,34.3,19.8,29.82,North,0,0.0,2.0,55,0.00,,,-99.99,WeatherLink 5.7,2013-03-16 14:40:00,
2013-03-16 11:00:00,34.4,19.0,29.82,NE,45,0.0,1.0,53,0.00,,,-99.99,WeatherLink 5.7,2013-03-16 15:00:00,
2013-03-16 11:20:00,35.5,21.3,29.83,NNE,22,1.0,3.0,56,0.00,,,-99.99,WeatherLink 5.7,2013-03-16 15:20:00,
2013-03-16 11:40:00,35.3,20.7,29.82,SE,135,0.0,2.0,55,0.00,,,-99.99,WeatherLink 5.7,2013-03-16 15:40:00,
2013-03-16 12:00:00,36.0,22.6,29.81,ESE,112,1.0,3.0,58,0.00,,,-99.99,WeatherLink 5.7,2013-03-16 16:00:00,
2013-03-16 12:10:00,35.9,22.5,29.81,ESE,112,0.0,2.0,58,0.00,,,-99.99,WeatherLink 5.7,2013-03-16 16:10:00,
2013-03-16 12:20:00,35.9,22.1,29.81,ESE,112,0.0,2.0,57,0.00,,,-99.99,WeatherLink 5.7,2013-03-16 16:20:00,
2013-03-16 12:40:00,35.7,22.4,29.80,ESE,112,0.0,3.0,58,0.00,,,-99.99,WeatherLink 5.7,2013-03-16 16:40:00,
2013-03-16 13:00:00,35.8,24.4,29.80,North,0,0.0,2.0,63,0.00,,,-99.99,WeatherLink 5.7,2013-03-16 17:00:00,
2013-03-16 13:20:00,33.9,25.5,29.80,North,-999,0.0,0.0,71,0.00,,,-99.99,WeatherLink 5.7,2013-03-16 17:20:00,
2013-03-16 13:30:00,33.1,26.0,29.81,North,-999,0.0,1.0,75,0.00,,,-99.99,WeatherLink 5.7,2013-03-16 17:30:00,
2013-03-16 13:50:00,33.8,26.4,29.80,North,-999,0.0,1.0,74,0.02,,,-99.99,WeatherLink 5.7,2013-03-16 17:50:00,
2013-03-16 14:00:00,33.6,26.5,29.80,North,0,0.0,2.0,75,0.03,,,-99.99,WeatherLink 5.7,2013-03-16 18:00:00,
2013-03-16 14:10:00,33.5,26.7,29.80,North,0,0.0,2.0,76,0.04,,,-99.99,WeatherLink 5.7,2013-03-16 18:10:00,
2013-03-16 14:30:00,33.2,26.5,29.79,NNW,337,1.0,3.0,76,0.05,,,-99.99,WeatherLink 5.7,2013-03-16 18:30:00,
2013-03-16 14:50:00,33.7,27.3,29.76,NNE,22,0.0,2.0,77,0.06,,,-99.99,WeatherLink 5.7,2013-03-16 18:50:00,
2013-03-16 15:00:00,34.2,27.1,29.77,NNE,22,0.0,1.0,75,0.06,,,-99.99,WeatherLink 5.7,2013-03-16 19:00:00,
2013-03-16 15:10:00,34.0,27.2,29.76,NNE,22,0.0,2.0,76,0.04,,,-99.99,WeatherLink 5.7,2013-03-16 19:10:00,
2013-03-16 15:30:00,33.8,27.4,29.77,North,0,0.0,1.0,77,0.03,,,-99.99,WeatherLink 5.7,2013-03-16 19:30:00,
2013-03-16 15:50:00,33.6,27.2,29.76,North,0,0.0,1.0,77,0.02,,,-99.99,WeatherLink 5.7,2013-03-16 19:50:00,
2013-03-16 16:10:00,33.3,27.5,29.76,North,0,0.0,1.0,79,0.02,,,-99.99,WeatherLink 5.7,2013-03-16 20:10:00,
2013-03-16 16:30:00,33.2,27.7,29.76,North,-999,0.0,0.0,80,0.01,,,-99.99,WeatherLink 5.7,2013-03-16 20:30:00,
2013-03-16 16:50:00,32.8,27.3,29.76,North,-999,0.0,1.0,80,0.01,,,-99.99,WeatherLink 5.7,2013-03-16 20:50:00,
2013-03-16 17:00:00,32.4,27.2,29.76,North,-999,0.0,0.0,81,0.01,,,-99.99,WeatherLink 5.7,2013-03-16 21:00:00,
2013-03-16 17:10:00,32.2,26.7,29.76,North,-999,0.0,1.0,80,0.01,,,-99.99,WeatherLink 5.7,2013-03-16 21:10:00,
2013-03-16 17:20:00,32.4,26.9,29.76,North,-999,0.0,0.0,80,0.01,,,-99.99,WeatherLink 5.7,2013-03-16 21:20:00,
2013-03-16 17:30:00,32.5,27.0,29.77,North,-999,0.0,0.0,80,0.00,,,-99.99,WeatherLink 5.7,2013-03-16 21:30:00,
2013-03-16 17:50:00,32.6,27.1,29.77,North,-999,0.0,1.0,80,0.00,,,-99.99,WeatherLink 5.7,2013-03-16 21:50:00,
2013-03-16 18:10:00,32.5,26.7,29.76,North,-999,0.0,0.0,79,0.00,,,-99.99,WeatherLink 5.7,2013-03-16 22:10:00,
2013-03-16 18:30:00,32.6,27.1,29.78,North,0,0.0,2.0,80,0.00,,,-99.99,WeatherLink 5.7,2013-03-16 22:30:00,
2013-03-16 18:50:00,32.4,27.2,29.77,North,0,0.0,1.0,81,0.00,,,-99.99,WeatherLink 5.7,2013-03-16 22:50:00,
2013-03-16 19:00:00,32.3,27.4,29.78,North,0,0.0,1.0,82,0.00,,,-99.99,WeatherLink 5.7,2013-03-16 23:00:00,
2013-03-16 19:10:00,32.1,27.2,29.79,North,0,0.0,2.0,82,0.00,,,-99.99,WeatherLink 5.7,2013-03-16 23:10:00,
2013-03-16 19:30:00,31.9,27.0,29.79,North,-999,0.0,0.0,82,0.00,,,-99.99,WeatherLink 5.7,2013-03-16 23:30:00,
2013-03-16 19:40:00,31.9,27.0,29.80,North,-999,0.0,0.0,82,0.00,,,-99.99,WeatherLink 5.7,2013-03-16 23:40:00,
2013-03-16 20:00:00,32.0,27.1,29.81,North,0,0.0,3.0,82,0.00,,,-99.99,WeatherLink 5.7,2013-03-17 00:00:00,
2013-03-16 20:20:00,31.8,26.6,29.82,NW,315,0.0,2.0,81,0.00,,,-99.99,WeatherLink 5.7,2013-03-17 00:20:00,
2013-03-16 20:40:00,31.8,26.6,29.83,NW,315,0.0,2.0,81,0.00,,,-99.99,WeatherLink 5.7,2013-03-17 00:40:00,
2013-03-16 21:00:00,31.7,26.5,29.84,NNW,337,0.0,2.0,81,0.00,,,-99.99,WeatherLink 5.7,2013-03-17 01:00:00,
2013-03-16 21:10:00,31.6,26.1,29.83,NNW,337,0.0,1.0,80,0.00,,,-99.99,WeatherLink 5.7,2013-03-17 01:10:00,
2013-03-16 21:30:00,31.6,26.1,29.85,NNW,337,0.0,1.0,80,0.00,,,-99.99,WeatherLink 5.7,2013-03-17 01:30:00,
2013-03-16 21:50:00,31.5,26.0,29.85,North,-999,0.0,1.0,80,0.00,,,-99.99,WeatherLink 5.7,2013-03-17 01:50:00,
2013-03-16 22:10:00,31.4,25.9,29.87,North,-999,0.0,1.0,80,0.00,,,-99.99,WeatherLink 5.7,2013-03-17 02:10:00,
2013-03-16 22:30:00,31.5,25.7,29.87,NNW,337,0.0,1.0,79,0.00,,,-99.99,WeatherLink 5.7,2013-03-17 02:30:00,
2013-03-16 22:40:00,31.5,26.0,29.87,NNW,337,0.0,1.0,80,0.00,,,-99.99,WeatherLink 5.7,2013-03-17 02:40:00,
2013-03-16 22:50:00,31.5,26.0,29.88,North,-999,0.0,0.0,80,0.00,,,-99.99,WeatherLink 5.7,2013-03-17 02:50:00,
2013-03-16 23:00:00,31.5,26.0,29.88,NNW,337,0.0,1.0,80,0.00,,,-99.99,WeatherLink 5.7,2013-03-17 03:00:00,
2013-03-16 23:20:00,31.5,26.0,29.89,NW,315,0.0,2.0,80,0.00,,,-99.99,WeatherLink 5.7,2013-03-17 03:20:00,
2013-03-16 23:40:00,31.4,26.2,29.89,North,-999,0.0,1.0,81,0.00,,,-99.99,WeatherLink 5.7,2013-03-17 03:40:00,